sensor_id;sensor_type;location;lat;lon;timestamp;temperature;humidity
78514;SHT31;67814;51.976;5.810;2023-08-31T00:01:53;14.8;72.2
78514;SHT31;67814;51.976;5.810;2023-08-31T00:04:21;14.8;72.3
78514;SHT31;67814;51.976;5.810;2023-08-31T00:06:50;14.8;72.6
78514;SHT31;67814;51.976;5.810;2023-08-31T00:09:18;14.8;72.6
78514;SHT31;67814;51.976;5.810;2023-08-31T00:11:47;14.8;72.5
78514;SHT31;67814;51.976;5.810;2023-08-31T00:14:16;14.8;72.7
78514;SHT31;67814;51.976;5.810;2023-08-31T00:16:45;14.8;72.7
78514;SHT31;67814;51.976;5.810;2023-08-31T00:19:14;14.8;72.8
78514;SHT31;67814;51.976;5.810;2023-08-31T00:21:43;14.8;72.8
78514;SHT31;67814;51.976;5.810;2023-08-31T00:24:11;14.8;72.9
78514;SHT31;67814;51.976;5.810;2023-08-31T00:26:40;14.8;72.7
78514;SHT31;67814;51.976;5.810;2023-08-31T00:29:09;14.8;72.7
78514;SHT31;67814;51.976;5.810;2023-08-31T00:31:42;14.7;72.9
78514;SHT31;67814;51.976;5.810;2023-08-31T00:34:11;14.7;73.0
78514;SHT31;67814;51.976;5.810;2023-08-31T00:36:41;14.7;73.3
78514;SHT31;67814;51.976;5.810;2023-08-31T00:39:11;14.7;73.3
78514;SHT31;67814;51.976;5.810;2023-08-31T00:41:42;14.7;73.1
78514;SHT31;67814;51.976;5.810;2023-08-31T00:44:12;14.7;73.3
78514;SHT31;67814;51.976;5.810;2023-08-31T00:46:41;14.7;73.3
78514;SHT31;67814;51.976;5.810;2023-08-31T00:49:10;14.7;73.3
78514;SHT31;67814;51.976;5.810;2023-08-31T00:51:41;14.7;73.5
78514;SHT31;67814;51.976;5.810;2023-08-31T00:54:15;14.7;73.5
78514;SHT31;67814;51.976;5.810;2023-08-31T00:56:44;14.6;73.6
78514;SHT31;67814;51.976;5.810;2023-08-31T00:59:13;14.6;73.8
78514;SHT31;67814;51.976;5.810;2023-08-31T01:01:49;14.6;73.9
78514;SHT31;67814;51.976;5.810;2023-08-31T01:04:25;14.6;73.9
78514;SHT31;67814;51.976;5.810;2023-08-31T01:07:04;14.6;74.1
78514;SHT31;67814;51.976;5.810;2023-08-31T01:09:46;14.6;74.3
78514;SHT31;67814;51.976;5.810;2023-08-31T01:12:22;14.6;74.2
78514;SHT31;67814;51.976;5.810;2023-08-31T01:15:03;14.6;74.2
78514;SHT31;67814;51.976;5.810;2023-08-31T01:17:39;14.6;73.9
78514;SHT31;67814;51.976;5.810;2023-08-31T01:20:11;14.6;73.9
78514;SHT31;67814;51.976;5.810;2023-08-31T01:22:45;14.6;74.0
78514;SHT31;67814;51.976;5.810;2023-08-31T01:25:16;14.6;74.0
78514;SHT31;67814;51.976;5.810;2023-08-31T01:27:44;14.6;74.1
78514;SHT31;67814;51.976;5.810;2023-08-31T01:30:13;14.6;74.3
78514;SHT31;67814;51.976;5.810;2023-08-31T01:32:45;14.6;74.3
78514;SHT31;67814;51.976;5.810;2023-08-31T01:35:16;14.6;74.4
78514;SHT31;67814;51.976;5.810;2023-08-31T01:37:49;14.6;74.8
78514;SHT31;67814;51.976;5.810;2023-08-31T01:40:22;14.6;75.0
78514;SHT31;67814;51.976;5.810;2023-08-31T01:42:52;14.6;75.1
78514;SHT31;67814;51.976;5.810;2023-08-31T01:45:23;14.7;75.0
78514;SHT31;67814;51.976;5.810;2023-08-31T01:47:53;14.7;75.2
78514;SHT31;67814;51.976;5.810;2023-08-31T01:50:24;14.7;75.0
78514;SHT31;67814;51.976;5.810;2023-08-31T01:52:53;14.7;74.8
78514;SHT31;67814;51.976;5.810;2023-08-31T01:55:22;14.7;74.8
78514;SHT31;67814;51.976;5.810;2023-08-31T01:57:51;14.8;74.9
78514;SHT31;67814;51.976;5.810;2023-08-31T02:00:19;14.8;74.6
78514;SHT31;67814;51.976;5.810;2023-08-31T02:02:48;14.8;74.5
78514;SHT31;67814;51.976;5.810;2023-08-31T02:05:17;14.8;74.6
78514;SHT31;67814;51.976;5.810;2023-08-31T02:07:45;14.9;74.4
78514;SHT31;67814;51.976;5.810;2023-08-31T02:10:14;14.9;74.6
78514;SHT31;67814;51.976;5.810;2023-08-31T02:12:43;14.9;74.4
78514;SHT31;67814;51.976;5.810;2023-08-31T02:15:11;14.9;74.1
78514;SHT31;67814;51.976;5.810;2023-08-31T02:17:40;15.0;74.2
78514;SHT31;67814;51.976;5.810;2023-08-31T02:20:10;15.0;74.2
78514;SHT31;67814;51.976;5.810;2023-08-31T02:22:40;15.0;74.1
78514;SHT31;67814;51.976;5.810;2023-08-31T02:25:09;15.0;74.0
78514;SHT31;67814;51.976;5.810;2023-08-31T02:27:39;15.0;73.7
78514;SHT31;67814;51.976;5.810;2023-08-31T02:30:08;15.0;73.6
78514;SHT31;67814;51.976;5.810;2023-08-31T02:32:37;15.0;73.7
78514;SHT31;67814;51.976;5.810;2023-08-31T02:35:06;15.0;73.5
78514;SHT31;67814;51.976;5.810;2023-08-31T02:37:34;15.1;73.7
78514;SHT31;67814;51.976;5.810;2023-08-31T02:40:03;15.1;73.5
78514;SHT31;67814;51.976;5.810;2023-08-31T02:42:32;15.1;73.7
78514;SHT31;67814;51.976;5.810;2023-08-31T02:45:01;15.1;73.7
78514;SHT31;67814;51.976;5.810;2023-08-31T02:47:30;15.1;73.4
78514;SHT31;67814;51.976;5.810;2023-08-31T02:49:59;15.0;73.1
78514;SHT31;67814;51.976;5.810;2023-08-31T02:52:28;15.0;72.9
78514;SHT31;67814;51.976;5.810;2023-08-31T02:54:56;15.0;73.4
78514;SHT31;67814;51.976;5.810;2023-08-31T02:57:24;15.0;74.4
78514;SHT31;67814;51.976;5.810;2023-08-31T02:59:53;15.0;74.5
78514;SHT31;67814;51.976;5.810;2023-08-31T03:02:22;14.9;74.8
78514;SHT31;67814;51.976;5.810;2023-08-31T03:04:51;14.9;74.7
78514;SHT31;67814;51.976;5.810;2023-08-31T03:07:19;15.0;74.8
78514;SHT31;67814;51.976;5.810;2023-08-31T03:09:50;15.0;74.6
78514;SHT31;67814;51.976;5.810;2023-08-31T03:12:18;15.0;74.4
78514;SHT31;67814;51.976;5.810;2023-08-31T03:14:48;15.0;74.2
78514;SHT31;67814;51.976;5.810;2023-08-31T03:17:16;15.1;74.1
78514;SHT31;67814;51.976;5.810;2023-08-31T03:19:45;15.1;73.8
78514;SHT31;67814;51.976;5.810;2023-08-31T03:22:13;15.1;73.8
78514;SHT31;67814;51.976;5.810;2023-08-31T03:24:45;15.1;73.6
78514;SHT31;67814;51.976;5.810;2023-08-31T03:27:13;15.1;73.5
78514;SHT31;67814;51.976;5.810;2023-08-31T03:29:42;15.2;73.2
78514;SHT31;67814;51.976;5.810;2023-08-31T03:32:10;15.2;72.9
78514;SHT31;67814;51.976;5.810;2023-08-31T03:34:39;15.2;72.7
78514;SHT31;67814;51.976;5.810;2023-08-31T03:37:07;15.2;72.5
78514;SHT31;67814;51.976;5.810;2023-08-31T03:39:36;15.2;72.6
78514;SHT31;67814;51.976;5.810;2023-08-31T03:42:07;15.2;72.3
78514;SHT31;67814;51.976;5.810;2023-08-31T03:44:36;15.2;72.3
78514;SHT31;67814;51.976;5.810;2023-08-31T03:47:05;15.2;72.1
78514;SHT31;67814;51.976;5.810;2023-08-31T03:49:36;15.2;72.0
78514;SHT31;67814;51.976;5.810;2023-08-31T03:52:05;15.1;72.0
78514;SHT31;67814;51.976;5.810;2023-08-31T03:54:33;15.1;72.0
78514;SHT31;67814;51.976;5.810;2023-08-31T03:57:02;15.1;72.1
78514;SHT31;67814;51.976;5.810;2023-08-31T03:59:30;15.1;72.3
78514;SHT31;67814;51.976;5.810;2023-08-31T04:02:01;15.1;72.4
78514;SHT31;67814;51.976;5.810;2023-08-31T04:04:30;15.1;72.3
78514;SHT31;67814;51.976;5.810;2023-08-31T04:07:00;15.1;72.2
78514;SHT31;67814;51.976;5.810;2023-08-31T04:09:30;15.0;72.0
78514;SHT31;67814;51.976;5.810;2023-08-31T04:11:59;15.0;72.2
78514;SHT31;67814;51.976;5.810;2023-08-31T04:14:28;15.0;72.3
78514;SHT31;67814;51.976;5.810;2023-08-31T04:16:57;15.0;72.3
78514;SHT31;67814;51.976;5.810;2023-08-31T04:19:26;15.0;72.6
78514;SHT31;67814;51.976;5.810;2023-08-31T04:21:55;14.9;72.9
78514;SHT31;67814;51.976;5.810;2023-08-31T04:24:24;14.9;73.2
78514;SHT31;67814;51.976;5.810;2023-08-31T04:26:52;14.9;73.4
78514;SHT31;67814;51.976;5.810;2023-08-31T04:29:22;14.9;73.9
78514;SHT31;67814;51.976;5.810;2023-08-31T04:31:51;14.9;74.3
78514;SHT31;67814;51.976;5.810;2023-08-31T04:34:20;14.9;74.4
78514;SHT31;67814;51.976;5.810;2023-08-31T04:36:48;14.9;74.8
78514;SHT31;67814;51.976;5.810;2023-08-31T04:39:17;15.0;74.7
78514;SHT31;67814;51.976;5.810;2023-08-31T04:41:45;15.0;75.1
78514;SHT31;67814;51.976;5.810;2023-08-31T04:44:14;15.0;75.4
78514;SHT31;67814;51.976;5.810;2023-08-31T04:46:45;15.0;75.5
78514;SHT31;67814;51.976;5.810;2023-08-31T04:49:13;15.1;75.7
78514;SHT31;67814;51.976;5.810;2023-08-31T04:51:44;15.1;75.9
78514;SHT31;67814;51.976;5.810;2023-08-31T04:54:13;15.1;75.9
78514;SHT31;67814;51.976;5.810;2023-08-31T04:56:41;15.1;75.9
78514;SHT31;67814;51.976;5.810;2023-08-31T04:59:09;15.1;75.9
78514;SHT31;67814;51.976;5.810;2023-08-31T05:01:38;15.2;76.2
78514;SHT31;67814;51.976;5.810;2023-08-31T05:04:06;15.2;76.1
78514;SHT31;67814;51.976;5.810;2023-08-31T05:06:35;15.2;76.3
78514;SHT31;67814;51.976;5.810;2023-08-31T05:09:03;15.2;76.4
78514;SHT31;67814;51.976;5.810;2023-08-31T05:11:32;15.2;76.6
78514;SHT31;67814;51.976;5.810;2023-08-31T05:14:01;15.2;76.6
78514;SHT31;67814;51.976;5.810;2023-08-31T05:16:30;15.3;76.5
78514;SHT31;67814;51.976;5.810;2023-08-31T05:18:58;15.3;76.7
78514;SHT31;67814;51.976;5.810;2023-08-31T05:21:27;15.3;76.6
78514;SHT31;67814;51.976;5.810;2023-08-31T05:23:55;15.3;76.2
78514;SHT31;67814;51.976;5.810;2023-08-31T05:26:24;15.3;76.4
78514;SHT31;67814;51.976;5.810;2023-08-31T05:28:52;15.3;76.6
78514;SHT31;67814;51.976;5.810;2023-08-31T05:31:22;15.3;76.7
78514;SHT31;67814;51.976;5.810;2023-08-31T05:33:51;15.3;76.8
78514;SHT31;67814;51.976;5.810;2023-08-31T05:36:19;15.2;77.1
78514;SHT31;67814;51.976;5.810;2023-08-31T05:38:48;15.2;77.0
78514;SHT31;67814;51.976;5.810;2023-08-31T05:41:18;15.2;77.2
78514;SHT31;67814;51.976;5.810;2023-08-31T05:43:47;15.2;77.4
78514;SHT31;67814;51.976;5.810;2023-08-31T05:46:15;15.2;77.9
78514;SHT31;67814;51.976;5.810;2023-08-31T05:48:46;15.1;77.8
78514;SHT31;67814;51.976;5.810;2023-08-31T05:51:14;15.1;78.2
78514;SHT31;67814;51.976;5.810;2023-08-31T05:53:43;15.1;78.2
78514;SHT31;67814;51.976;5.810;2023-08-31T05:56:11;15.1;78.0
78514;SHT31;67814;51.976;5.810;2023-08-31T05:58:39;15.2;78.3
78514;SHT31;67814;51.976;5.810;2023-08-31T06:01:08;15.2;78.5
78514;SHT31;67814;51.976;5.810;2023-08-31T06:03:36;15.2;78.3
78514;SHT31;67814;51.976;5.810;2023-08-31T06:06:05;15.2;78.3
78514;SHT31;67814;51.976;5.810;2023-08-31T06:08:33;15.2;78.4
78514;SHT31;67814;51.976;5.810;2023-08-31T06:11:04;15.2;77.9
78514;SHT31;67814;51.976;5.810;2023-08-31T06:13:32;15.2;78.3
78514;SHT31;67814;51.976;5.810;2023-08-31T06:16:02;15.3;78.5
78514;SHT31;67814;51.976;5.810;2023-08-31T06:18:30;15.3;78.4
78514;SHT31;67814;51.976;5.810;2023-08-31T06:20:59;15.3;77.7
78514;SHT31;67814;51.976;5.810;2023-08-31T06:23:27;15.4;77.3
78514;SHT31;67814;51.976;5.810;2023-08-31T06:25:56;15.4;76.9
78514;SHT31;67814;51.976;5.810;2023-08-31T06:28:24;15.5;77.9
78514;SHT31;67814;51.976;5.810;2023-08-31T06:30:53;15.5;78.9
78514;SHT31;67814;51.976;5.810;2023-08-31T06:33:21;15.6;78.6
78514;SHT31;67814;51.976;5.810;2023-08-31T06:35:51;15.7;77.8
78514;SHT31;67814;51.976;5.810;2023-08-31T06:38:20;15.8;78.1
78514;SHT31;67814;51.976;5.810;2023-08-31T06:40:48;15.9;77.8
78514;SHT31;67814;51.976;5.810;2023-08-31T06:43:17;15.9;76.2
78514;SHT31;67814;51.976;5.810;2023-08-31T06:45:45;16.0;76.4
78514;SHT31;67814;51.976;5.810;2023-08-31T06:48:14;16.0;75.8
78514;SHT31;67814;51.976;5.810;2023-08-31T06:50:42;16.0;75.6
78514;SHT31;67814;51.976;5.810;2023-08-31T06:53:11;16.1;75.6
78514;SHT31;67814;51.976;5.810;2023-08-31T06:55:41;16.1;75.9
78514;SHT31;67814;51.976;5.810;2023-08-31T06:58:10;16.1;75.7
78514;SHT31;67814;51.976;5.810;2023-08-31T07:00:38;16.1;75.7
78514;SHT31;67814;51.976;5.810;2023-08-31T07:03:07;16.1;75.6
78514;SHT31;67814;51.976;5.810;2023-08-31T07:05:43;16.1;76.5
78514;SHT31;67814;51.976;5.810;2023-08-31T07:08:11;16.1;75.8
78514;SHT31;67814;51.976;5.810;2023-08-31T07:10:40;16.1;76.2
78514;SHT31;67814;51.976;5.810;2023-08-31T07:13:08;16.1;76.5
78514;SHT31;67814;51.976;5.810;2023-08-31T07:15:37;16.1;76.4
78514;SHT31;67814;51.976;5.810;2023-08-31T07:18:06;16.1;76.1
78514;SHT31;67814;51.976;5.810;2023-08-31T07:20:34;16.1;76.1
78514;SHT31;67814;51.976;5.810;2023-08-31T07:23:03;16.1;75.9
78514;SHT31;67814;51.976;5.810;2023-08-31T07:25:31;16.1;75.9
78514;SHT31;67814;51.976;5.810;2023-08-31T07:28:00;16.1;76.0
78514;SHT31;67814;51.976;5.810;2023-08-31T07:30:29;16.2;76.0
78514;SHT31;67814;51.976;5.810;2023-08-31T07:32:59;16.2;76.4
78514;SHT31;67814;51.976;5.810;2023-08-31T07:35:30;16.2;76.3
78514;SHT31;67814;51.976;5.810;2023-08-31T07:37:58;16.2;77.1
78514;SHT31;67814;51.976;5.810;2023-08-31T07:40:27;16.2;77.4
78514;SHT31;67814;51.976;5.810;2023-08-31T07:42:55;16.3;77.4
78514;SHT31;67814;51.976;5.810;2023-08-31T07:45:24;16.3;77.0
78514;SHT31;67814;51.976;5.810;2023-08-31T07:47:52;16.4;76.6
78514;SHT31;67814;51.976;5.810;2023-08-31T07:50:21;16.5;76.1
78514;SHT31;67814;51.976;5.810;2023-08-31T07:52:49;16.5;76.5
78514;SHT31;67814;51.976;5.810;2023-08-31T07:55:18;16.5;75.7
78514;SHT31;67814;51.976;5.810;2023-08-31T07:57:46;16.5;75.6
78514;SHT31;67814;51.976;5.810;2023-08-31T08:00:18;16.6;75.2
78514;SHT31;67814;51.976;5.810;2023-08-31T08:02:46;16.6;75.6
78514;SHT31;67814;51.976;5.810;2023-08-31T08:05:15;16.6;75.6
78514;SHT31;67814;51.976;5.810;2023-08-31T08:07:43;16.6;76.2
78514;SHT31;67814;51.976;5.810;2023-08-31T08:10:12;16.6;76.2
78514;SHT31;67814;51.976;5.810;2023-08-31T08:12:42;16.6;76.3
78514;SHT31;67814;51.976;5.810;2023-08-31T08:15:13;16.7;77.1
78514;SHT31;67814;51.976;5.810;2023-08-31T08:17:42;16.7;77.2
78514;SHT31;67814;51.976;5.810;2023-08-31T08:20:11;16.8;77.2
78514;SHT31;67814;51.976;5.810;2023-08-31T08:22:40;16.8;77.3
78514;SHT31;67814;51.976;5.810;2023-08-31T08:25:08;16.9;77.1
78514;SHT31;67814;51.976;5.810;2023-08-31T08:27:37;16.9;77.9
78514;SHT31;67814;51.976;5.810;2023-08-31T08:30:06;17.0;78.8
78514;SHT31;67814;51.976;5.810;2023-08-31T08:32:36;17.1;78.6
78514;SHT31;67814;51.976;5.810;2023-08-31T08:35:05;17.3;78.0
78514;SHT31;67814;51.976;5.810;2023-08-31T08:37:36;17.4;77.1
78514;SHT31;67814;51.976;5.810;2023-08-31T08:40:05;17.5;77.2
78514;SHT31;67814;51.976;5.810;2023-08-31T08:42:42;17.7;75.5
78514;SHT31;67814;51.976;5.810;2023-08-31T08:45:13;17.8;75.4
78514;SHT31;67814;51.976;5.810;2023-08-31T08:47:44;17.9;75.9
78514;SHT31;67814;51.976;5.810;2023-08-31T08:50:13;18.0;75.1
78514;SHT31;67814;51.976;5.810;2023-08-31T08:52:45;18.1;74.1
78514;SHT31;67814;51.976;5.810;2023-08-31T08:55:14;18.2;74.8
78514;SHT31;67814;51.976;5.810;2023-08-31T08:57:43;18.3;73.5
78514;SHT31;67814;51.976;5.810;2023-08-31T09:00:12;18.4;74.6
78514;SHT31;67814;51.976;5.810;2023-08-31T09:02:42;18.4;73.3
78514;SHT31;67814;51.976;5.810;2023-08-31T09:05:11;18.5;72.6
78514;SHT31;67814;51.976;5.810;2023-08-31T09:08:02;18.6;72.5
78514;SHT31;67814;51.976;5.810;2023-08-31T09:10:39;18.7;71.1
78514;SHT31;67814;51.976;5.810;2023-08-31T09:13:09;18.7;73.2
78514;SHT31;67814;51.976;5.810;2023-08-31T09:15:39;18.8;70.3
78514;SHT31;67814;51.976;5.810;2023-08-31T09:18:13;18.8;69.9
78514;SHT31;67814;51.976;5.810;2023-08-31T09:20:46;18.9;70.2
78514;SHT31;67814;51.976;5.810;2023-08-31T09:23:16;18.9;71.9
78514;SHT31;67814;51.976;5.810;2023-08-31T09:25:46;19.0;70.5
78514;SHT31;67814;51.976;5.810;2023-08-31T09:28:18;19.1;71.7
78514;SHT31;67814;51.976;5.810;2023-08-31T09:30:49;19.2;69.6
78514;SHT31;67814;51.976;5.810;2023-08-31T09:33:20;19.3;68.6
78514;SHT31;67814;51.976;5.810;2023-08-31T09:35:53;19.3;69.2
78514;SHT31;67814;51.976;5.810;2023-08-31T09:38:22;19.4;68.4
78514;SHT31;67814;51.976;5.810;2023-08-31T09:40:51;19.5;68.4
78514;SHT31;67814;51.976;5.810;2023-08-31T09:43:23;19.5;69.1
78514;SHT31;67814;51.976;5.810;2023-08-31T09:45:53;19.6;69.7
78514;SHT31;67814;51.976;5.810;2023-08-31T09:48:22;19.6;65.4
78514;SHT31;67814;51.976;5.810;2023-08-31T09:50:52;19.6;64.6
78514;SHT31;67814;51.976;5.810;2023-08-31T09:53:21;19.6;63.7
78514;SHT31;67814;51.976;5.810;2023-08-31T09:55:51;19.6;63.9
78514;SHT31;67814;51.976;5.810;2023-08-31T09:58:23;19.6;65.6
78514;SHT31;67814;51.976;5.810;2023-08-31T10:00:52;19.6;63.6
78514;SHT31;67814;51.976;5.810;2023-08-31T10:03:21;19.6;64.9
78514;SHT31;67814;51.976;5.810;2023-08-31T10:05:52;19.6;65.0
78514;SHT31;67814;51.976;5.810;2023-08-31T10:08:24;19.6;65.1
78514;SHT31;67814;51.976;5.810;2023-08-31T10:10:56;19.6;66.0
78514;SHT31;67814;51.976;5.810;2023-08-31T10:13:28;19.6;63.9
78514;SHT31;67814;51.976;5.810;2023-08-31T10:16:00;19.6;63.9
78514;SHT31;67814;51.976;5.810;2023-08-31T10:18:31;19.6;63.1
78514;SHT31;67814;51.976;5.810;2023-08-31T10:21:02;19.6;62.2
78514;SHT31;67814;51.976;5.810;2023-08-31T10:23:32;19.6;62.3
78514;SHT31;67814;51.976;5.810;2023-08-31T10:26:02;19.5;62.3
78514;SHT31;67814;51.976;5.810;2023-08-31T10:28:42;19.5;63.9
78514;SHT31;67814;51.976;5.810;2023-08-31T10:31:18;19.5;64.3
78514;SHT31;67814;51.976;5.810;2023-08-31T10:33:58;19.6;64.6
78514;SHT31;67814;51.976;5.810;2023-08-31T10:36:37;19.6;64.1
78514;SHT31;67814;51.976;5.810;2023-08-31T10:39:12;19.6;60.2
78514;SHT31;67814;51.976;5.810;2023-08-31T10:41:51;19.6;61.5
78514;SHT31;67814;51.976;5.810;2023-08-31T10:44:21;19.7;59.3
78514;SHT31;67814;51.976;5.810;2023-08-31T10:46:51;19.7;61.9
78514;SHT31;67814;51.976;5.810;2023-08-31T10:49:21;19.7;60.9
78514;SHT31;67814;51.976;5.810;2023-08-31T10:51:54;19.7;60.8
78514;SHT31;67814;51.976;5.810;2023-08-31T10:54:24;19.7;59.4
78514;SHT31;67814;51.976;5.810;2023-08-31T10:56:54;19.7;60.8
78514;SHT31;67814;51.976;5.810;2023-08-31T10:59:25;19.8;61.2
78514;SHT31;67814;51.976;5.810;2023-08-31T11:01:58;19.8;61.6
78514;SHT31;67814;51.976;5.810;2023-08-31T11:04:30;19.9;59.8
78514;SHT31;67814;51.976;5.810;2023-08-31T11:07:16;19.9;58.5
78514;SHT31;67814;51.976;5.810;2023-08-31T11:09:46;20.0;59.3
78514;SHT31;67814;51.976;5.810;2023-08-31T11:12:15;20.0;57.1
78514;SHT31;67814;51.976;5.810;2023-08-31T11:14:43;20.1;57.5
78514;SHT31;67814;51.976;5.810;2023-08-31T11:17:12;20.1;56.3
78514;SHT31;67814;51.976;5.810;2023-08-31T11:19:41;20.2;58.1
78514;SHT31;67814;51.976;5.810;2023-08-31T11:22:11;20.2;57.7
78514;SHT31;67814;51.976;5.810;2023-08-31T11:24:40;20.3;57.1
78514;SHT31;67814;51.976;5.810;2023-08-31T11:27:09;20.4;55.4
78514;SHT31;67814;51.976;5.810;2023-08-31T11:29:43;20.5;55.4
78514;SHT31;67814;51.976;5.810;2023-08-31T11:32:12;20.6;53.6
78514;SHT31;67814;51.976;5.810;2023-08-31T11:34:43;20.7;53.7
78514;SHT31;67814;51.976;5.810;2023-08-31T11:37:13;20.8;52.4
78514;SHT31;67814;51.976;5.810;2023-08-31T11:39:50;20.8;51.7
78514;SHT31;67814;51.976;5.810;2023-08-31T11:42:19;20.8;50.7
78514;SHT31;67814;51.976;5.810;2023-08-31T11:44:49;20.9;51.7
78514;SHT31;67814;51.976;5.810;2023-08-31T11:47:20;20.9;52.5
78514;SHT31;67814;51.976;5.810;2023-08-31T11:49:49;20.9;51.2
78514;SHT31;67814;51.976;5.810;2023-08-31T11:52:19;20.9;51.3
78514;SHT31;67814;51.976;5.810;2023-08-31T11:54:52;21.0;50.8
78514;SHT31;67814;51.976;5.810;2023-08-31T11:57:25;21.0;50.8
78514;SHT31;67814;51.976;5.810;2023-08-31T11:59:57;21.0;48.1
78514;SHT31;67814;51.976;5.810;2023-08-31T12:02:25;21.0;47.4
78514;SHT31;67814;51.976;5.810;2023-08-31T12:04:56;21.1;46.2
78514;SHT31;67814;51.976;5.810;2023-08-31T12:07:24;21.1;47.4
78514;SHT31;67814;51.976;5.810;2023-08-31T12:09:53;21.1;46.0
78514;SHT31;67814;51.976;5.810;2023-08-31T12:12:23;21.1;47.0
78514;SHT31;67814;51.976;5.810;2023-08-31T12:14:54;21.1;47.6
78514;SHT31;67814;51.976;5.810;2023-08-31T12:17:22;21.1;47.8
78514;SHT31;67814;51.976;5.810;2023-08-31T12:19:51;21.2;47.4
78514;SHT31;67814;51.976;5.810;2023-08-31T12:22:19;21.2;45.9
78514;SHT31;67814;51.976;5.810;2023-08-31T12:24:48;21.2;47.5
78514;SHT31;67814;51.976;5.810;2023-08-31T12:27:16;21.2;47.1
78514;SHT31;67814;51.976;5.810;2023-08-31T12:29:45;21.2;46.7
78514;SHT31;67814;51.976;5.810;2023-08-31T12:32:13;21.2;46.0
78514;SHT31;67814;51.976;5.810;2023-08-31T12:34:42;21.2;45.6
78514;SHT31;67814;51.976;5.810;2023-08-31T12:37:10;21.2;46.5
78514;SHT31;67814;51.976;5.810;2023-08-31T12:39:41;21.2;46.7
78514;SHT31;67814;51.976;5.810;2023-08-31T12:42:12;21.2;46.3
78514;SHT31;67814;51.976;5.810;2023-08-31T12:44:40;21.2;48.4
78514;SHT31;67814;51.976;5.810;2023-08-31T12:47:09;21.3;48.1
78514;SHT31;67814;51.976;5.810;2023-08-31T12:49:37;21.3;48.7
78514;SHT31;67814;51.976;5.810;2023-08-31T12:52:06;21.4;46.4
78514;SHT31;67814;51.976;5.810;2023-08-31T12:54:35;21.4;45.5
78514;SHT31;67814;51.976;5.810;2023-08-31T12:57:03;21.4;46.5
78514;SHT31;67814;51.976;5.810;2023-08-31T12:59:32;21.4;47.0
78514;SHT31;67814;51.976;5.810;2023-08-31T13:02:01;21.4;45.2
78514;SHT31;67814;51.976;5.810;2023-08-31T13:04:30;21.4;46.5
78514;SHT31;67814;51.976;5.810;2023-08-31T13:06:59;21.3;45.1
78514;SHT31;67814;51.976;5.810;2023-08-31T13:09:27;21.3;46.7
78514;SHT31;67814;51.976;5.810;2023-08-31T13:11:58;21.3;48.3
78514;SHT31;67814;51.976;5.810;2023-08-31T13:14:26;21.3;45.8
78514;SHT31;67814;51.976;5.810;2023-08-31T13:16:55;21.3;47.2
78514;SHT31;67814;51.976;5.810;2023-08-31T13:19:23;21.3;45.0
78514;SHT31;67814;51.976;5.810;2023-08-31T13:21:52;21.3;44.2
78514;SHT31;67814;51.976;5.810;2023-08-31T13:24:20;21.2;45.3
78514;SHT31;67814;51.976;5.810;2023-08-31T13:26:49;21.2;47.5
78514;SHT31;67814;51.976;5.810;2023-08-31T13:29:18;21.2;44.9
78514;SHT31;67814;51.976;5.810;2023-08-31T13:31:46;21.2;47.3
78514;SHT31;67814;51.976;5.810;2023-08-31T13:34:15;21.2;45.9
78514;SHT31;67814;51.976;5.810;2023-08-31T13:36:45;21.2;46.6
78514;SHT31;67814;51.976;5.810;2023-08-31T13:39:13;21.3;46.1
78514;SHT31;67814;51.976;5.810;2023-08-31T13:41:42;21.3;48.3
78514;SHT31;67814;51.976;5.810;2023-08-31T13:44:12;21.3;45.8
78514;SHT31;67814;51.976;5.810;2023-08-31T13:46:40;21.3;46.9
78514;SHT31;67814;51.976;5.810;2023-08-31T13:49:09;21.4;46.3
78514;SHT31;67814;51.976;5.810;2023-08-31T13:51:37;21.4;47.5
78514;SHT31;67814;51.976;5.810;2023-08-31T13:54:08;21.5;45.6
78514;SHT31;67814;51.976;5.810;2023-08-31T13:56:37;21.5;45.3
78514;SHT31;67814;51.976;5.810;2023-08-31T13:59:05;21.6;46.4
78514;SHT31;67814;51.976;5.810;2023-08-31T14:01:34;21.6;47.1
78514;SHT31;67814;51.976;5.810;2023-08-31T14:04:04;21.7;46.9
78514;SHT31;67814;51.976;5.810;2023-08-31T14:06:33;21.8;46.7
78514;SHT31;67814;51.976;5.810;2023-08-31T14:09:02;21.8;45.4
78514;SHT31;67814;51.976;5.810;2023-08-31T14:11:31;21.9;46.4
78514;SHT31;67814;51.976;5.810;2023-08-31T14:14:04;21.9;45.6
78514;SHT31;67814;51.976;5.810;2023-08-31T14:16:37;21.9;46.4
78514;SHT31;67814;51.976;5.810;2023-08-31T14:19:06;22.0;47.3
78514;SHT31;67814;51.976;5.810;2023-08-31T14:21:35;22.0;45.4
78514;SHT31;67814;51.976;5.810;2023-08-31T14:24:04;22.1;43.9
78514;SHT31;67814;51.976;5.810;2023-08-31T14:26:32;22.1;43.9
78514;SHT31;67814;51.976;5.810;2023-08-31T14:29:02;22.1;44.0
78514;SHT31;67814;51.976;5.810;2023-08-31T14:31:30;22.1;44.5
78514;SHT31;67814;51.976;5.810;2023-08-31T14:33:59;22.1;46.3
78514;SHT31;67814;51.976;5.810;2023-08-31T14:36:28;22.1;45.7
78514;SHT31;67814;51.976;5.810;2023-08-31T14:38:56;22.1;43.6
78514;SHT31;67814;51.976;5.810;2023-08-31T14:41:25;22.0;45.5
78514;SHT31;67814;51.976;5.810;2023-08-31T14:43:53;22.0;43.1
78514;SHT31;67814;51.976;5.810;2023-08-31T14:46:22;21.9;44.3
78514;SHT31;67814;51.976;5.810;2023-08-31T14:48:51;21.9;44.6
78514;SHT31;67814;51.976;5.810;2023-08-31T14:51:19;21.8;45.1
78514;SHT31;67814;51.976;5.810;2023-08-31T14:53:48;21.8;46.8
78514;SHT31;67814;51.976;5.810;2023-08-31T14:56:16;21.8;45.6
78514;SHT31;67814;51.976;5.810;2023-08-31T14:58:45;21.8;47.1
78514;SHT31;67814;51.976;5.810;2023-08-31T15:01:13;21.8;48.7
78514;SHT31;67814;51.976;5.810;2023-08-31T15:03:42;21.9;45.8
78514;SHT31;67814;51.976;5.810;2023-08-31T15:06:11;21.9;45.4
78514;SHT31;67814;51.976;5.810;2023-08-31T15:08:40;22.0;46.0
78514;SHT31;67814;51.976;5.810;2023-08-31T15:11:09;22.0;44.9
78514;SHT31;67814;51.976;5.810;2023-08-31T15:13:38;22.0;45.8
78514;SHT31;67814;51.976;5.810;2023-08-31T15:16:07;22.1;45.0
78514;SHT31;67814;51.976;5.810;2023-08-31T15:18:35;22.1;47.1
78514;SHT31;67814;51.976;5.810;2023-08-31T15:21:04;22.1;46.9
78514;SHT31;67814;51.976;5.810;2023-08-31T15:23:32;22.2;44.0
78514;SHT31;67814;51.976;5.810;2023-08-31T15:26:02;22.2;45.1
78514;SHT31;67814;51.976;5.810;2023-08-31T15:28:30;22.2;45.2
78514;SHT31;67814;51.976;5.810;2023-08-31T15:30:59;22.1;44.8
78514;SHT31;67814;51.976;5.810;2023-08-31T15:33:27;22.1;44.6
78514;SHT31;67814;51.976;5.810;2023-08-31T15:36:03;22.0;44.6
78514;SHT31;67814;51.976;5.810;2023-08-31T15:38:33;22.0;46.0
78514;SHT31;67814;51.976;5.810;2023-08-31T15:41:04;21.9;45.5
78514;SHT31;67814;51.976;5.810;2023-08-31T15:43:34;21.9;47.4
78514;SHT31;67814;51.976;5.810;2023-08-31T15:46:04;21.9;47.5
78514;SHT31;67814;51.976;5.810;2023-08-31T15:48:33;21.9;46.7
78514;SHT31;67814;51.976;5.810;2023-08-31T15:51:03;21.9;48.3
78514;SHT31;67814;51.976;5.810;2023-08-31T15:53:32;21.9;47.2
78514;SHT31;67814;51.976;5.810;2023-08-31T15:56:02;21.9;47.3
78514;SHT31;67814;51.976;5.810;2023-08-31T15:58:32;21.9;48.7
78514;SHT31;67814;51.976;5.810;2023-08-31T16:01:01;21.9;48.0
78514;SHT31;67814;51.976;5.810;2023-08-31T16:03:31;21.9;45.5
78514;SHT31;67814;51.976;5.810;2023-08-31T16:06:01;21.9;46.0
78514;SHT31;67814;51.976;5.810;2023-08-31T16:08:30;21.9;45.8
78514;SHT31;67814;51.976;5.810;2023-08-31T16:11:02;21.9;47.2
78514;SHT31;67814;51.976;5.810;2023-08-31T16:13:32;21.9;47.5
78514;SHT31;67814;51.976;5.810;2023-08-31T16:16:04;21.9;47.8
78514;SHT31;67814;51.976;5.810;2023-08-31T16:18:34;21.9;48.0